• Join FlightAware (Why Join?)
  • Login
  • US Flag 
06:25AM EDT


 

Airport Tracker/Info


-or-


 

Live Flight TrackerFlight Track Log ✈ ASQ5245 ✈ 08-May-2013 ✈ KATL - KILM

Flight Track Log - Related Links

Times and Time Zones

All times are in EDT time to prevent confusion due to time zone crossing. See the ASQ5245 flight status page for this flight to view local times or setup timezone preferences in your user account.

Time Position Orientation Groundspeed Altitude Reporting Facility
EDT Latitude Longitude Course Direction KTS MPH feet Rate Location/Type
08:33AM 33.6333 -84.4833 118° Southeast 203 234 3,000  Level Atlanta TRACON
08:34AM 33.6000 -84.5667 244° Southwest 262 302 6,000 2,520 Climbing Atlanta TRACON
08:36AM 33.4575 -84.4944 157° South 281 323 11,500 2,100 Climbing Atlanta Center
08:37AM 33.4536 -84.3650 92° East 299 344 13,100 1,560 Climbing Atlanta Center
08:38AM 33.4600 -84.2381 87° East 351 404 14,700 1,680 Climbing Atlanta Center
08:39AM 33.6262 -83.8263 118° Southeast  Level FlightAware Approximate
08:39AM 33.4811 -84.1061 79° East 389 448 16,500  Level Atlanta Center
08:40AM 33.5000 -83.9764 80° East 395 455 18,000 1,500 Climbing Atlanta Center
08:41AM 33.5186 -83.8469 80° East 395 455 19,600 1,440 Climbing Atlanta Center
08:42AM 33.5369 -83.7122 81° East 395 455 20,900 1,200 Climbing Atlanta Center
08:43AM 33.5553 -83.5753 81° East 402 463 22,000 1,020 Climbing Atlanta Center
08:44AM 33.5736 -83.4353 81° East 420 483 23,000 960 Climbing Atlanta Center
08:45AM 33.5936 -83.2931 80° East 426 490 24,000 960 Climbing Atlanta Center
08:46AM 33.6114 -83.1483 82° East 426 490 25,000 300 Climbing Atlanta Center
08:49AM 33.6506 -82.8403 81° East 431 496 25,000  Level Jacksonville Center
08:50AM 33.6653 -82.7031 83° East 461 531 25,000  Level Jacksonville Center
08:51AM 33.6817 -82.5631 82° East 450 518 25,000  Level Jacksonville Center
08:52AM 33.7000 -82.4183 81° East 439 505 25,000  Level Jacksonville Center
08:53AM 33.7200 -82.2608 81° East 428 493 25,000  Level Jacksonville Center
08:54AM 33.7358 -82.1183 82° East 428 493 25,000  Level Jacksonville Center
08:55AM 33.7539 -81.9733 81° East 428 493 25,000  Level Jacksonville Center
08:56AM 33.7714 -81.8233 82° East 439 505 25,000  Level Jacksonville Center
08:57AM 33.7889 -81.6756 82° East 444 511 25,000  Level Jacksonville Center
08:58AM 33.8081 -81.5303 81° East 444 511 25,000  Level Jacksonville Center
08:59AM 33.8317 -81.3875 79° East 444 511 25,000  Level Jacksonville Center
09:00AM 33.8547 -81.2444 79° East 444 511 25,000  Level Jacksonville Center
09:01AM 33.8800 -81.0964 78° East 444 511 25,000  Level Jacksonville Center
09:02AM 33.9008 -80.9533 80° East 438 504 25,000  Level Jacksonville Center
09:03AM 33.9214 -80.8103 80° East 438 504 25,000  Level Jacksonville Center
09:04AM 33.9461 -80.6669 78° East 432 497 25,000  Level Jacksonville Center
09:05AM 33.9706 -80.5211 79° East 432 497 25,000  Level Jacksonville Center
09:06AM 33.9908 -80.3778 80° East 427 491 25,000  Level Jacksonville Center
09:07AM 34.0128 -80.2344 79° East 427 491 25,000  Level Jacksonville Center
09:08AM 34.0347 -80.0908 80° East 427 491 25,000  Level Jacksonville Center
09:09AM 34.0586 -79.9447 79° East 427 491 25,000 -120 Level Jacksonville Center
09:10AM 34.0803 -79.8011 80° East 432 497 24,800 -540 Descending Jacksonville Center
09:11AM 34.0994 -79.6525 81° East 432 497 24,000 -1,200 Descending Jacksonville Center
09:12AM 34.1228 -79.5136 78° East 432 497 22,400 -1,560 Descending Jacksonville Center
09:13AM 34.1364 -79.3928 82° East 426 490 20,900 -1,680 Descending Jacksonville Center
09:14AM 34.1683 -79.1711 80° East 427 491 18,000 -1,740 Descending Washington Center
09:15AM 34.1869 -79.0339 81° East 415 478 16,300 -1,740 Descending Washington Center
09:16AM 34.2075 -78.9017 79° East 407 468 14,500 -1,800 Descending Washington Center
09:17AM 34.2256 -78.7767 80° East 397 457 12,700 -1,800 Descending Washington Center
09:18AM 34.2433 -78.6467 81° East 386 444 11,000 -900 Descending Washington Center
09:19AM 34.2589 -78.5317 81° East 373 429 11,000 -60 Level Washington Center
09:20AM 34.2761 -78.4167 80° East 356 410 10,900 -900 Descending Washington Center
09:21AM 34.2931 -78.3144 79° East 329 379 9,300 -1,740 Descending Washington Center
09:22AM 34.3244 -78.2222 68° East 304 350 7,500 -1,680 Descending Washington Center
09:23AM 34.3533 -78.1353 68° East 286 329 6,000 -780 Descending Washington Center
09:24AM 34.3803 -78.0556 68° East 272 313 6,000 -600 Level Washington Center
09:25AM 34.4089 -77.9758 66° East 255 293 4,900 -1,380 Descending Washington Center
09:26AM 34.4333 -77.8986 69° East 249 287 3,300 -1,020 Descending Washington Center
09:27AM 34.4053 -77.8450 122° Southeast 205 236 3,000 -300 Descending Washington Center